sensor_id;sensor_type;location;lat;lon;timestamp;P1;durP1;ratioP1;P2;durP2;ratioP2
21754;SDS011;11039;50.028;19.938;2023-03-01T00:01:06;4.25;;;3.33;;
21754;SDS011;11039;50.028;19.938;2023-03-01T00:03:33;5.18;;;3.80;;
21754;SDS011;11039;50.028;19.938;2023-03-01T00:05:59;5.03;;;3.70;;
21754;SDS011;11039;50.028;19.938;2023-03-01T00:08:25;5.90;;;3.67;;
21754;SDS011;11039;50.028;19.938;2023-03-01T00:11:01;5.22;;;3.83;;
21754;SDS011;11039;50.028;19.938;2023-03-01T00:13:28;4.88;;;3.70;;
21754;SDS011;11039;50.028;19.938;2023-03-01T00:15:54;5.63;;;4.10;;
21754;SDS011;11039;50.028;19.938;2023-03-01T00:18:20;5.55;;;3.80;;
21754;SDS011;11039;50.028;19.938;2023-03-01T00:20:51;4.47;;;3.45;;
21754;SDS011;11039;50.028;19.938;2023-03-01T00:23:17;4.40;;;3.42;;
21754;SDS011;11039;50.028;19.938;2023-03-01T00:25:43;5.75;;;3.92;;
21754;SDS011;11039;50.028;19.938;2023-03-01T00:28:09;6.20;;;3.83;;
21754;SDS011;11039;50.028;19.938;2023-03-01T00:30:35;5.07;;;3.80;;
21754;SDS011;11039;50.028;19.938;2023-03-01T00:33:01;5.18;;;3.50;;
21754;SDS011;11039;50.028;19.938;2023-03-01T00:35:27;5.60;;;3.88;;
21754;SDS011;11039;50.028;19.938;2023-03-01T00:37:53;4.80;;;3.50;;
21754;SDS011;11039;50.028;19.938;2023-03-01T00:40:26;5.22;;;3.30;;
21754;SDS011;11039;50.028;19.938;2023-03-01T00:42:52;4.28;;;3.30;;
21754;SDS011;11039;50.028;19.938;2023-03-01T00:45:18;4.05;;;3.25;;
21754;SDS011;11039;50.028;19.938;2023-03-01T00:47:45;5.35;;;3.38;;
21754;SDS011;11039;50.028;19.938;2023-03-01T00:50:11;5.82;;;3.50;;
21754;SDS011;11039;50.028;19.938;2023-03-01T00:52:37;5.70;;;3.40;;
21754;SDS011;11039;50.028;19.938;2023-03-01T00:55:04;7.15;;;3.70;;
21754;SDS011;11039;50.028;19.938;2023-03-01T00:57:30;4.75;;;3.33;;
21754;SDS011;11039;50.028;19.938;2023-03-01T00:59:57;3.80;;;3.10;;
21754;SDS011;11039;50.028;19.938;2023-03-01T01:02:23;4.97;;;3.28;;
21754;SDS011;11039;50.028;19.938;2023-03-01T01:04:49;3.25;;;2.78;;
21754;SDS011;11039;50.028;19.938;2023-03-01T01:07:15;4.22;;;3.15;;
21754;SDS011;11039;50.028;19.938;2023-03-01T01:09:41;4.63;;;3.08;;
21754;SDS011;11039;50.028;19.938;2023-03-01T01:12:07;3.45;;;3.10;;
21754;SDS011;11039;50.028;19.938;2023-03-01T01:14:34;4.50;;;3.33;;
21754;SDS011;11039;50.028;19.938;2023-03-01T01:17:00;4.82;;;3.05;;
21754;SDS011;11039;50.028;19.938;2023-03-01T01:19:27;4.90;;;3.53;;
21754;SDS011;11039;50.028;19.938;2023-03-01T01:21:53;4.53;;;3.42;;
21754;SDS011;11039;50.028;19.938;2023-03-01T01:24:19;4.80;;;3.20;;
21754;SDS011;11039;50.028;19.938;2023-03-01T01:26:46;5.55;;;3.45;;
21754;SDS011;11039;50.028;19.938;2023-03-01T01:29:12;3.67;;;2.75;;
21754;SDS011;11039;50.028;19.938;2023-03-01T01:31:38;4.10;;;3.30;;
21754;SDS011;11039;50.028;19.938;2023-03-01T01:34:06;4.30;;;3.40;;
21754;SDS011;11039;50.028;19.938;2023-03-01T01:36:33;4.82;;;3.50;;
21754;SDS011;11039;50.028;19.938;2023-03-01T01:39:00;5.03;;;3.40;;
21754;SDS011;11039;50.028;19.938;2023-03-01T01:41:27;4.05;;;3.28;;
21754;SDS011;11039;50.028;19.938;2023-03-01T01:47:23;5.20;;;3.85;;
21754;SDS011;11039;50.028;19.938;2023-03-01T01:54:57;6.05;;;4.28;;
21754;SDS011;11039;50.028;19.938;2023-03-01T01:57:25;5.07;;;3.83;;
21754;SDS011;11039;50.028;19.938;2023-03-01T01:59:54;5.95;;;4.38;;
21754;SDS011;11039;50.028;19.938;2023-03-01T02:02:22;5.25;;;3.80;;
21754;SDS011;11039;50.028;19.938;2023-03-01T02:04:48;5.63;;;4.03;;
21754;SDS011;11039;50.028;19.938;2023-03-01T02:07:17;5.85;;;4.05;;
21754;SDS011;11039;50.028;19.938;2023-03-01T02:09:45;5.68;;;3.80;;
21754;SDS011;11039;50.028;19.938;2023-03-01T02:12:11;5.60;;;4.05;;
21754;SDS011;11039;50.028;19.938;2023-03-01T02:14:38;5.35;;;4.28;;
21754;SDS011;11039;50.028;19.938;2023-03-01T02:17:04;6.45;;;4.50;;
21754;SDS011;11039;50.028;19.938;2023-03-01T02:24:29;6.30;;;4.72;;
21754;SDS011;11039;50.028;19.938;2023-03-01T02:26:57;6.03;;;4.40;;
21754;SDS011;11039;50.028;19.938;2023-03-01T02:29:24;6.28;;;4.45;;
21754;SDS011;11039;50.028;19.938;2023-03-01T02:31:51;5.60;;;4.35;;
21754;SDS011;11039;50.028;19.938;2023-03-01T02:34:20;5.82;;;4.30;;
21754;SDS011;11039;50.028;19.938;2023-03-01T02:36:47;5.20;;;4.00;;
21754;SDS011;11039;50.028;19.938;2023-03-01T02:39:15;7.00;;;4.80;;
21754;SDS011;11039;50.028;19.938;2023-03-01T02:41:43;6.00;;;4.40;;
21754;SDS011;11039;50.028;19.938;2023-03-01T02:44:10;6.40;;;4.53;;
21754;SDS011;11039;50.028;19.938;2023-03-01T02:46:42;5.82;;;4.18;;
21754;SDS011;11039;50.028;19.938;2023-03-01T02:49:18;7.38;;;5.10;;
21754;SDS011;11039;50.028;19.938;2023-03-01T02:51:47;6.88;;;4.93;;
21754;SDS011;11039;50.028;19.938;2023-03-01T02:56:43;6.68;;;4.97;;
21754;SDS011;11039;50.028;19.938;2023-03-01T02:59:14;7.68;;;5.00;;
21754;SDS011;11039;50.028;19.938;2023-03-01T03:01:41;6.50;;;4.75;;
21754;SDS011;11039;50.028;19.938;2023-03-01T03:04:08;6.30;;;4.57;;
21754;SDS011;11039;50.028;19.938;2023-03-01T03:06:34;6.68;;;5.00;;
21754;SDS011;11039;50.028;19.938;2023-03-01T03:09:01;6.18;;;4.93;;
21754;SDS011;11039;50.028;19.938;2023-03-01T03:11:27;6.03;;;4.63;;
21754;SDS011;11039;50.028;19.938;2023-03-01T03:13:53;5.47;;;4.53;;
21754;SDS011;11039;50.028;19.938;2023-03-01T03:16:19;5.95;;;4.70;;
21754;SDS011;11039;50.028;19.938;2023-03-01T03:18:45;5.93;;;4.43;;
21754;SDS011;11039;50.028;19.938;2023-03-01T03:21:11;6.75;;;5.13;;
21754;SDS011;11039;50.028;19.938;2023-03-01T03:23:38;8.15;;;5.25;;
21754;SDS011;11039;50.028;19.938;2023-03-01T03:26:04;6.40;;;4.90;;
21754;SDS011;11039;50.028;19.938;2023-03-01T03:28:31;6.32;;;5.07;;
21754;SDS011;11039;50.028;19.938;2023-03-01T03:30:57;6.40;;;4.90;;
21754;SDS011;11039;50.028;19.938;2023-03-01T03:33:23;6.47;;;4.88;;
21754;SDS011;11039;50.028;19.938;2023-03-01T03:35:50;7.60;;;5.25;;
21754;SDS011;11039;50.028;19.938;2023-03-01T03:38:17;7.05;;;5.03;;
21754;SDS011;11039;50.028;19.938;2023-03-01T03:40:48;6.15;;;4.68;;
21754;SDS011;11039;50.028;19.938;2023-03-01T03:43:15;6.97;;;5.18;;
21754;SDS011;11039;50.028;19.938;2023-03-01T03:45:43;6.88;;;5.20;;
21754;SDS011;11039;50.028;19.938;2023-03-01T03:48:09;7.38;;;5.47;;
21754;SDS011;11039;50.028;19.938;2023-03-01T03:50:36;7.43;;;5.00;;
21754;SDS011;11039;50.028;19.938;2023-03-01T03:53:03;8.02;;;5.35;;
21754;SDS011;11039;50.028;19.938;2023-03-01T03:55:29;6.60;;;5.00;;
21754;SDS011;11039;50.028;19.938;2023-03-01T03:57:58;6.25;;;5.07;;
21754;SDS011;11039;50.028;19.938;2023-03-01T04:00:27;7.93;;;5.68;;
21754;SDS011;11039;50.028;19.938;2023-03-01T04:02:53;6.75;;;5.07;;
21754;SDS011;11039;50.028;19.938;2023-03-01T04:05:21;6.72;;;5.18;;
21754;SDS011;11039;50.028;19.938;2023-03-01T04:07:48;7.45;;;5.65;;
21754;SDS011;11039;50.028;19.938;2023-03-01T04:10:15;7.40;;;5.15;;
21754;SDS011;11039;50.028;19.938;2023-03-01T04:12:41;7.38;;;5.05;;
21754;SDS011;11039;50.028;19.938;2023-03-01T04:15:08;6.72;;;5.00;;
21754;SDS011;11039;50.028;19.938;2023-03-01T04:17:40;7.45;;;5.25;;
21754;SDS011;11039;50.028;19.938;2023-03-01T04:20:08;6.50;;;5.05;;
21754;SDS011;11039;50.028;19.938;2023-03-01T04:22:34;6.05;;;4.55;;
21754;SDS011;11039;50.028;19.938;2023-03-01T04:25:00;7.63;;;5.72;;
21754;SDS011;11039;50.028;19.938;2023-03-01T04:27:27;6.97;;;5.53;;
21754;SDS011;11039;50.028;19.938;2023-03-01T04:29:53;8.27;;;5.75;;
21754;SDS011;11039;50.028;19.938;2023-03-01T04:32:19;8.15;;;5.95;;
21754;SDS011;11039;50.028;19.938;2023-03-01T04:34:45;6.50;;;5.40;;
21754;SDS011;11039;50.028;19.938;2023-03-01T04:37:11;7.30;;;5.50;;
21754;SDS011;11039;50.028;19.938;2023-03-01T04:39:37;7.10;;;5.10;;
21754;SDS011;11039;50.028;19.938;2023-03-01T04:42:10;8.77;;;5.95;;
21754;SDS011;11039;50.028;19.938;2023-03-01T04:44:36;6.95;;;5.10;;
21754;SDS011;11039;50.028;19.938;2023-03-01T04:47:02;6.90;;;4.75;;
21754;SDS011;11039;50.028;19.938;2023-03-01T04:49:29;7.35;;;5.22;;
21754;SDS011;11039;50.028;19.938;2023-03-01T04:51:55;7.00;;;5.15;;
21754;SDS011;11039;50.028;19.938;2023-03-01T04:54:23;7.88;;;5.70;;
21754;SDS011;11039;50.028;19.938;2023-03-01T04:56:49;7.15;;;5.30;;
21754;SDS011;11039;50.028;19.938;2023-03-01T04:59:15;6.75;;;5.15;;
21754;SDS011;11039;50.028;19.938;2023-03-01T05:01:41;7.90;;;5.65;;
21754;SDS011;11039;50.028;19.938;2023-03-01T05:04:07;6.53;;;5.00;;
21754;SDS011;11039;50.028;19.938;2023-03-01T05:06:37;7.65;;;5.50;;
21754;SDS011;11039;50.028;19.938;2023-03-01T05:09:04;7.45;;;5.28;;
21754;SDS011;11039;50.028;19.938;2023-03-01T05:11:30;8.68;;;6.15;;
21754;SDS011;11039;50.028;19.938;2023-03-01T05:14:00;7.32;;;5.50;;
21754;SDS011;11039;50.028;19.938;2023-03-01T05:16:27;8.27;;;5.93;;
21754;SDS011;11039;50.028;19.938;2023-03-01T05:18:53;7.22;;;5.40;;
21754;SDS011;11039;50.028;19.938;2023-03-01T05:21:20;7.53;;;5.38;;
21754;SDS011;11039;50.028;19.938;2023-03-01T05:23:46;7.00;;;5.35;;
21754;SDS011;11039;50.028;19.938;2023-03-01T05:26:13;7.22;;;5.07;;
21754;SDS011;11039;50.028;19.938;2023-03-01T05:28:39;7.47;;;5.70;;
21754;SDS011;11039;50.028;19.938;2023-03-01T05:31:05;8.20;;;5.78;;
21754;SDS011;11039;50.028;19.938;2023-03-01T05:33:38;7.55;;;5.28;;
21754;SDS011;11039;50.028;19.938;2023-03-01T05:36:05;8.07;;;5.70;;
21754;SDS011;11039;50.028;19.938;2023-03-01T05:38:32;7.28;;;5.45;;
21754;SDS011;11039;50.028;19.938;2023-03-01T05:40:58;6.50;;;5.13;;
21754;SDS011;11039;50.028;19.938;2023-03-01T05:43:24;6.82;;;5.30;;
21754;SDS011;11039;50.028;19.938;2023-03-01T05:45:50;7.22;;;5.53;;
21754;SDS011;11039;50.028;19.938;2023-03-01T05:48:16;6.68;;;5.30;;
21754;SDS011;11039;50.028;19.938;2023-03-01T05:50:44;6.97;;;5.50;;
21754;SDS011;11039;50.028;19.938;2023-03-01T05:53:16;6.80;;;5.05;;
21754;SDS011;11039;50.028;19.938;2023-03-01T05:55:43;7.00;;;5.18;;
21754;SDS011;11039;50.028;19.938;2023-03-01T05:58:13;7.47;;;5.63;;
21754;SDS011;11039;50.028;19.938;2023-03-01T06:00:40;7.00;;;5.10;;
21754;SDS011;11039;50.028;19.938;2023-03-01T06:03:06;7.05;;;5.07;;
21754;SDS011;11039;50.028;19.938;2023-03-01T06:05:32;6.30;;;5.03;;
21754;SDS011;11039;50.028;19.938;2023-03-01T06:07:58;7.57;;;5.35;;
21754;SDS011;11039;50.028;19.938;2023-03-01T06:10:25;7.00;;;5.20;;
21754;SDS011;11039;50.028;19.938;2023-03-01T06:12:51;7.38;;;5.40;;
21754;SDS011;11039;50.028;19.938;2023-03-01T06:15:17;6.57;;;4.90;;
21754;SDS011;11039;50.028;19.938;2023-03-01T06:17:43;6.75;;;5.07;;
21754;SDS011;11039;50.028;19.938;2023-03-01T06:22:37;8.00;;;5.32;;
21754;SDS011;11039;50.028;19.938;2023-03-01T06:25:03;7.15;;;5.40;;
21754;SDS011;11039;50.028;19.938;2023-03-01T06:27:30;6.85;;;5.03;;
21754;SDS011;11039;50.028;19.938;2023-03-01T06:29:56;6.97;;;5.13;;
21754;SDS011;11039;50.028;19.938;2023-03-01T06:32:22;7.55;;;5.38;;
21754;SDS011;11039;50.028;19.938;2023-03-01T06:34:48;6.35;;;4.55;;
21754;SDS011;11039;50.028;19.938;2023-03-01T06:37:15;8.05;;;5.80;;
21754;SDS011;11039;50.028;19.938;2023-03-01T06:39:41;7.00;;;5.22;;
21754;SDS011;11039;50.028;19.938;2023-03-01T06:42:07;6.75;;;4.97;;
21754;SDS011;11039;50.028;19.938;2023-03-01T06:44:35;7.47;;;5.57;;
21754;SDS011;11039;50.028;19.938;2023-03-01T06:47:01;8.10;;;5.43;;
21754;SDS011;11039;50.028;19.938;2023-03-01T06:49:27;8.02;;;4.90;;
21754;SDS011;11039;50.028;19.938;2023-03-01T06:51:53;6.93;;;5.00;;
21754;SDS011;11039;50.028;19.938;2023-03-01T06:54:19;7.32;;;5.75;;
21754;SDS011;11039;50.028;19.938;2023-03-01T06:56:47;9.52;;;5.55;;
21754;SDS011;11039;50.028;19.938;2023-03-01T06:59:13;6.78;;;5.13;;
21754;SDS011;11039;50.028;19.938;2023-03-01T07:01:40;7.30;;;5.72;;
21754;SDS011;11039;50.028;19.938;2023-03-01T07:04:06;7.88;;;5.75;;
21754;SDS011;11039;50.028;19.938;2023-03-01T07:06:32;8.00;;;5.68;;
21754;SDS011;11039;50.028;19.938;2023-03-01T07:08:58;7.03;;;5.57;;
21754;SDS011;11039;50.028;19.938;2023-03-01T07:11:24;7.20;;;5.40;;
21754;SDS011;11039;50.028;19.938;2023-03-01T07:13:50;7.70;;;5.82;;
21754;SDS011;11039;50.028;19.938;2023-03-01T07:16:16;7.05;;;5.50;;
21754;SDS011;11039;50.028;19.938;2023-03-01T07:18:42;6.70;;;5.47;;
21754;SDS011;11039;50.028;19.938;2023-03-01T07:21:09;7.80;;;5.70;;
21754;SDS011;11039;50.028;19.938;2023-03-01T07:23:36;8.55;;;5.60;;
21754;SDS011;11039;50.028;19.938;2023-03-01T07:26:03;8.43;;;5.75;;
21754;SDS011;11039;50.028;19.938;2023-03-01T07:28:29;6.88;;;5.35;;
21754;SDS011;11039;50.028;19.938;2023-03-01T07:31:00;8.07;;;5.70;;
21754;SDS011;11039;50.028;19.938;2023-03-01T07:33:26;7.10;;;5.32;;
21754;SDS011;11039;50.028;19.938;2023-03-01T07:35:56;8.10;;;5.22;;
21754;SDS011;11039;50.028;19.938;2023-03-01T07:38:22;6.75;;;5.25;;
21754;SDS011;11039;50.028;19.938;2023-03-01T07:40:49;6.07;;;4.85;;
21754;SDS011;11039;50.028;19.938;2023-03-01T07:43:15;6.30;;;5.15;;
21754;SDS011;11039;50.028;19.938;2023-03-01T07:45:41;8.65;;;5.80;;
21754;SDS011;11039;50.028;19.938;2023-03-01T07:48:07;6.07;;;4.72;;
21754;SDS011;11039;50.028;19.938;2023-03-01T07:50:33;6.60;;;4.97;;
21754;SDS011;11039;50.028;19.938;2023-03-01T07:52:59;6.95;;;5.13;;
21754;SDS011;11039;50.028;19.938;2023-03-01T07:55:25;8.05;;;5.18;;
21754;SDS011;11039;50.028;19.938;2023-03-01T07:57:51;7.05;;;4.50;;
21754;SDS011;11039;50.028;19.938;2023-03-01T08:00:17;9.55;;;5.65;;
21754;SDS011;11039;50.028;19.938;2023-03-01T08:02:43;9.82;;;6.18;;
21754;SDS011;11039;50.028;19.938;2023-03-01T08:05:10;9.25;;;5.35;;
21754;SDS011;11039;50.028;19.938;2023-03-01T08:07:36;7.82;;;5.88;;
21754;SDS011;11039;50.028;19.938;2023-03-01T08:10:02;9.23;;;6.38;;
21754;SDS011;11039;50.028;19.938;2023-03-01T08:12:28;7.70;;;5.25;;
21754;SDS011;11039;50.028;19.938;2023-03-01T08:14:54;16.73;;;11.50;;
21754;SDS011;11039;50.028;19.938;2023-03-01T08:17:21;14.52;;;8.48;;
21754;SDS011;11039;50.028;19.938;2023-03-01T08:19:47;13.63;;;9.23;;
21754;SDS011;11039;50.028;19.938;2023-03-01T08:22:14;12.50;;;9.13;;
21754;SDS011;11039;50.028;19.938;2023-03-01T08:24:40;9.88;;;6.22;;
21754;SDS011;11039;50.028;19.938;2023-03-01T08:27:06;9.52;;;6.00;;
21754;SDS011;11039;50.028;19.938;2023-03-01T08:29:32;9.90;;;6.70;;
21754;SDS011;11039;50.028;19.938;2023-03-01T08:31:59;31.20;;;10.50;;
21754;SDS011;11039;50.028;19.938;2023-03-01T08:34:25;13.45;;;7.38;;
21754;SDS011;11039;50.028;19.938;2023-03-01T08:36:51;10.48;;;6.50;;
21754;SDS011;11039;50.028;19.938;2023-03-01T08:39:18;12.15;;;6.40;;
21754;SDS011;11039;50.028;19.938;2023-03-01T08:41:45;9.45;;;6.03;;
21754;SDS011;11039;50.028;19.938;2023-03-01T08:44:12;10.38;;;5.80;;
21754;SDS011;11039;50.028;19.938;2023-03-01T08:46:39;9.65;;;5.95;;
21754;SDS011;11039;50.028;19.938;2023-03-01T08:49:10;8.98;;;5.75;;
21754;SDS011;11039;50.028;19.938;2023-03-01T08:51:36;9.90;;;5.40;;
21754;SDS011;11039;50.028;19.938;2023-03-01T08:54:03;9.40;;;5.45;;
21754;SDS011;11039;50.028;19.938;2023-03-01T08:56:29;7.78;;;5.35;;
21754;SDS011;11039;50.028;19.938;2023-03-01T08:58:55;8.60;;;5.65;;
21754;SDS011;11039;50.028;19.938;2023-03-01T09:01:22;7.82;;;5.15;;
21754;SDS011;11039;50.028;19.938;2023-03-01T09:03:48;7.57;;;5.28;;
21754;SDS011;11039;50.028;19.938;2023-03-01T09:06:14;7.18;;;5.25;;
21754;SDS011;11039;50.028;19.938;2023-03-01T09:08:44;7.90;;;4.85;;
21754;SDS011;11039;50.028;19.938;2023-03-01T09:11:12;6.22;;;4.50;;
21754;SDS011;11039;50.028;19.938;2023-03-01T09:13:38;5.80;;;4.47;;
21754;SDS011;11039;50.028;19.938;2023-03-01T09:16:05;6.95;;;4.60;;
21754;SDS011;11039;50.028;19.938;2023-03-01T09:18:31;6.93;;;4.82;;
21754;SDS011;11039;50.028;19.938;2023-03-01T09:21:04;6.18;;;4.32;;
21754;SDS011;11039;50.028;19.938;2023-03-01T09:23:34;6.85;;;4.60;;
21754;SDS011;11039;50.028;19.938;2023-03-01T09:26:07;6.30;;;4.53;;
21754;SDS011;11039;50.028;19.938;2023-03-01T09:28:38;6.28;;;4.50;;
21754;SDS011;11039;50.028;19.938;2023-03-01T09:31:05;5.97;;;4.40;;
21754;SDS011;11039;50.028;19.938;2023-03-01T09:33:31;6.57;;;4.60;;
21754;SDS011;11039;50.028;19.938;2023-03-01T09:36:02;5.78;;;4.47;;
21754;SDS011;11039;50.028;19.938;2023-03-01T09:38:28;6.50;;;4.70;;
21754;SDS011;11039;50.028;19.938;2023-03-01T09:40:54;5.75;;;4.40;;
21754;SDS011;11039;50.028;19.938;2023-03-01T09:46:07;6.30;;;4.43;;
21754;SDS011;11039;50.028;19.938;2023-03-01T09:48:37;6.50;;;4.15;;
21754;SDS011;11039;50.028;19.938;2023-03-01T09:51:08;5.38;;;4.18;;
21754;SDS011;11039;50.028;19.938;2023-03-01T09:53:38;5.32;;;4.15;;
21754;SDS011;11039;50.028;19.938;2023-03-01T09:56:05;5.10;;;3.85;;
21754;SDS011;11039;50.028;19.938;2023-03-01T10:01:19;4.80;;;3.58;;
21754;SDS011;11039;50.028;19.938;2023-03-01T10:06:39;4.78;;;3.30;;
21754;SDS011;11039;50.028;19.938;2023-03-01T10:09:10;4.40;;;3.45;;
21754;SDS011;11039;50.028;19.938;2023-03-01T10:11:38;4.45;;;3.63;;
21754;SDS011;11039;50.028;19.938;2023-03-01T10:14:06;6.65;;;3.60;;
21754;SDS011;11039;50.028;19.938;2023-03-01T10:19:08;5.20;;;3.20;;
21754;SDS011;11039;50.028;19.938;2023-03-01T10:21:38;4.68;;;3.28;;
21754;SDS011;11039;50.028;19.938;2023-03-01T10:24:10;4.72;;;3.63;;
21754;SDS011;11039;50.028;19.938;2023-03-01T10:26:48;5.05;;;3.40;;
21754;SDS011;11039;50.028;19.938;2023-03-01T10:29:14;5.50;;;3.30;;
21754;SDS011;11039;50.028;19.938;2023-03-01T10:31:44;4.03;;;3.17;;
21754;SDS011;11039;50.028;19.938;2023-03-01T10:34:18;4.53;;;2.95;;
21754;SDS011;11039;50.028;19.938;2023-03-01T10:36:48;4.50;;;3.05;;
21754;SDS011;11039;50.028;19.938;2023-03-01T10:39:20;3.95;;;2.95;;
21754;SDS011;11039;50.028;19.938;2023-03-01T10:41:54;3.95;;;2.70;;
21754;SDS011;11039;50.028;19.938;2023-03-01T10:44:37;3.97;;;2.97;;
21754;SDS011;11039;50.028;19.938;2023-03-01T10:47:04;3.78;;;3.30;;
21754;SDS011;11039;50.028;19.938;2023-03-01T10:49:31;3.72;;;3.10;;
21754;SDS011;11039;50.028;19.938;2023-03-01T10:51:57;3.85;;;2.80;;
21754;SDS011;11039;50.028;19.938;2023-03-01T10:54:36;4.13;;;2.80;;
21754;SDS011;11039;50.028;19.938;2023-03-01T10:57:05;3.70;;;2.90;;
21754;SDS011;11039;50.028;19.938;2023-03-01T10:59:35;3.00;;;2.45;;
21754;SDS011;11039;50.028;19.938;2023-03-01T11:02:18;3.40;;;2.65;;
21754;SDS011;11039;50.028;19.938;2023-03-01T11:04:57;3.33;;;2.50;;
21754;SDS011;11039;50.028;19.938;2023-03-01T11:07:23;3.15;;;2.40;;
21754;SDS011;11039;50.028;19.938;2023-03-01T11:09:50;3.22;;;2.58;;
21754;SDS011;11039;50.028;19.938;2023-03-01T11:12:16;3.88;;;2.47;;
21754;SDS011;11039;50.028;19.938;2023-03-01T11:14:49;3.60;;;2.50;;
21754;SDS011;11039;50.028;19.938;2023-03-01T11:17:29;3.88;;;2.45;;
21754;SDS011;11039;50.028;19.938;2023-03-01T11:19:59;2.55;;;2.05;;
21754;SDS011;11039;50.028;19.938;2023-03-01T11:22:26;3.60;;;2.72;;
21754;SDS011;11039;50.028;19.938;2023-03-01T11:24:53;3.30;;;2.25;;
21754;SDS011;11039;50.028;19.938;2023-03-01T11:27:21;2.58;;;2.17;;
21754;SDS011;11039;50.028;19.938;2023-03-01T11:32:20;3.55;;;2.47;;
21754;SDS011;11039;50.028;19.938;2023-03-01T11:34:49;2.97;;;2.30;;
21754;SDS011;11039;50.028;19.938;2023-03-01T11:37:28;3.80;;;2.30;;
21754;SDS011;11039;50.028;19.938;2023-03-01T11:39:59;2.75;;;2.00;;
21754;SDS011;11039;50.028;19.938;2023-03-01T11:45:11;3.00;;;2.20;;
21754;SDS011;11039;50.028;19.938;2023-03-01T11:50:13;2.85;;;2.15;;
21754;SDS011;11039;50.028;19.938;2023-03-01T12:11:03;3.53;;;2.30;;
21754;SDS011;11039;50.028;19.938;2023-03-01T12:21:55;3.33;;;2.20;;
21754;SDS011;11039;50.028;19.938;2023-03-01T12:24:27;3.30;;;2.15;;
21754;SDS011;11039;50.028;19.938;2023-03-01T12:29:50;3.38;;;2.13;;
21754;SDS011;11039;50.028;19.938;2023-03-01T12:48:02;3.35;;;2.20;;
21754;SDS011;11039;50.028;19.938;2023-03-01T12:50:40;4.22;;;2.08;;
21754;SDS011;11039;50.028;19.938;2023-03-01T12:53:12;3.67;;;2.40;;
21754;SDS011;11039;50.028;19.938;2023-03-01T12:55:43;2.50;;;1.98;;
21754;SDS011;11039;50.028;19.938;2023-03-01T13:03:25;2.70;;;2.20;;
21754;SDS011;11039;50.028;19.938;2023-03-01T13:08:44;4.57;;;2.60;;
21754;SDS011;11039;50.028;19.938;2023-03-01T13:11:20;4.03;;;2.83;;
21754;SDS011;11039;50.028;19.938;2023-03-01T13:13:47;4.43;;;2.67;;
21754;SDS011;11039;50.028;19.938;2023-03-01T13:16:38;4.90;;;3.20;;
21754;SDS011;11039;50.028;19.938;2023-03-01T13:19:47;4.68;;;3.28;;
21754;SDS011;11039;50.028;19.938;2023-03-01T13:21:55;5.28;;;3.00;;
21754;SDS011;11039;50.028;19.938;2023-03-01T13:24:54;4.30;;;3.30;;
21754;SDS011;11039;50.028;19.938;2023-03-01T13:34:47;5.53;;;3.50;;
21754;SDS011;11039;50.028;19.938;2023-03-01T13:37:21;5.22;;;3.15;;
21754;SDS011;11039;50.028;19.938;2023-03-01T13:39:48;4.97;;;3.20;;
21754;SDS011;11039;50.028;19.938;2023-03-01T13:44:53;8.68;;;6.32;;
21754;SDS011;11039;50.028;19.938;2023-03-01T13:47:19;16.15;;;10.88;;
21754;SDS011;11039;50.028;19.938;2023-03-01T13:49:51;18.98;;;11.82;;
21754;SDS011;11039;50.028;19.938;2023-03-01T13:55:27;18.33;;;11.52;;
21754;SDS011;11039;50.028;19.938;2023-03-01T13:57:52;15.88;;;10.82;;
21754;SDS011;11039;50.028;19.938;2023-03-01T14:03:02;8.88;;;6.03;;
21754;SDS011;11039;50.028;19.938;2023-03-01T14:05:29;8.13;;;5.93;;
21754;SDS011;11039;50.028;19.938;2023-03-01T14:07:55;7.70;;;5.55;;
21754;SDS011;11039;50.028;19.938;2023-03-01T14:10:21;9.25;;;5.35;;
21754;SDS011;11039;50.028;19.938;2023-03-01T14:15:26;7.18;;;4.45;;
21754;SDS011;11039;50.028;19.938;2023-03-01T14:18:13;6.03;;;4.85;;
21754;SDS011;11039;50.028;19.938;2023-03-01T14:20:43;5.90;;;3.97;;
21754;SDS011;11039;50.028;19.938;2023-03-01T14:23:18;5.95;;;4.28;;
21754;SDS011;11039;50.028;19.938;2023-03-01T14:25:49;6.80;;;4.40;;
21754;SDS011;11039;50.028;19.938;2023-03-01T14:30:51;4.88;;;3.70;;
21754;SDS011;11039;50.028;19.938;2023-03-01T14:38:23;6.90;;;3.45;;
21754;SDS011;11039;50.028;19.938;2023-03-01T14:40:51;9.60;;;6.35;;
21754;SDS011;11039;50.028;19.938;2023-03-01T14:43:20;8.75;;;6.57;;
21754;SDS011;11039;50.028;19.938;2023-03-01T14:45:48;7.10;;;5.50;;
21754;SDS011;11039;50.028;19.938;2023-03-01T14:48:15;7.07;;;4.25;;
21754;SDS011;11039;50.028;19.938;2023-03-01T14:50:41;5.57;;;3.55;;
21754;SDS011;11039;50.028;19.938;2023-03-01T14:53:14;6.97;;;3.50;;
21754;SDS011;11039;50.028;19.938;2023-03-01T14:55:42;3.97;;;3.40;;
21754;SDS011;11039;50.028;19.938;2023-03-01T14:58:12;7.72;;;3.22;;
21754;SDS011;11039;50.028;19.938;2023-03-01T15:00:38;5.25;;;3.10;;
21754;SDS011;11039;50.028;19.938;2023-03-01T15:03:07;3.88;;;2.63;;
21754;SDS011;11039;50.028;19.938;2023-03-01T15:05:38;5.07;;;2.88;;
21754;SDS011;11039;50.028;19.938;2023-03-01T15:08:05;4.60;;;3.00;;
21754;SDS011;11039;50.028;19.938;2023-03-01T15:10:33;3.95;;;2.80;;
21754;SDS011;11039;50.028;19.938;2023-03-01T15:13:12;5.20;;;2.92;;
21754;SDS011;11039;50.028;19.938;2023-03-01T15:15:41;3.83;;;2.40;;
21754;SDS011;11039;50.028;19.938;2023-03-01T15:18:14;3.60;;;2.40;;
21754;SDS011;11039;50.028;19.938;2023-03-01T15:20:41;3.55;;;2.58;;
21754;SDS011;11039;50.028;19.938;2023-03-01T15:23:16;3.92;;;2.47;;
21754;SDS011;11039;50.028;19.938;2023-03-01T15:25:44;3.90;;;2.45;;
21754;SDS011;11039;50.028;19.938;2023-03-01T15:28:12;3.45;;;2.17;;
21754;SDS011;11039;50.028;19.938;2023-03-01T15:30:43;3.90;;;2.30;;
21754;SDS011;11039;50.028;19.938;2023-03-01T15:33:17;2.97;;;1.98;;
21754;SDS011;11039;50.028;19.938;2023-03-01T15:35:47;3.10;;;2.10;;
21754;SDS011;11039;50.028;19.938;2023-03-01T15:38:23;3.78;;;2.25;;
21754;SDS011;11039;50.028;19.938;2023-03-01T15:40:49;2.03;;;1.75;;
21754;SDS011;11039;50.028;19.938;2023-03-01T15:46:01;2.45;;;1.95;;
21754;SDS011;11039;50.028;19.938;2023-03-01T15:48:27;2.67;;;1.60;;
21754;SDS011;11039;50.028;19.938;2023-03-01T15:50:56;2.78;;;1.90;;
21754;SDS011;11039;50.028;19.938;2023-03-01T15:53:23;3.70;;;1.90;;
21754;SDS011;11039;50.028;19.938;2023-03-01T15:55:49;2.30;;;1.70;;
21754;SDS011;11039;50.028;19.938;2023-03-01T15:58:17;2.80;;;1.98;;
21754;SDS011;11039;50.028;19.938;2023-03-01T16:00:44;2.60;;;1.77;;
21754;SDS011;11039;50.028;19.938;2023-03-01T16:03:10;2.60;;;1.80;;
21754;SDS011;11039;50.028;19.938;2023-03-01T16:05:37;3.13;;;1.80;;
21754;SDS011;11039;50.028;19.938;2023-03-01T16:08:04;3.03;;;1.90;;
21754;SDS011;11039;50.028;19.938;2023-03-01T16:10:33;2.55;;;1.60;;
21754;SDS011;11039;50.028;19.938;2023-03-01T16:12:59;2.13;;;1.60;;
21754;SDS011;11039;50.028;19.938;2023-03-01T16:15:27;3.05;;;1.90;;
21754;SDS011;11039;50.028;19.938;2023-03-01T16:17:53;1.92;;;1.60;;
21754;SDS011;11039;50.028;19.938;2023-03-01T16:20:19;2.20;;;1.63;;
21754;SDS011;11039;50.028;19.938;2023-03-01T16:22:46;3.25;;;1.60;;
21754;SDS011;11039;50.028;19.938;2023-03-01T16:25:13;2.38;;;1.70;;
21754;SDS011;11039;50.028;19.938;2023-03-01T16:27:41;3.55;;;2.00;;
21754;SDS011;11039;50.028;19.938;2023-03-01T16:30:08;3.60;;;2.10;;
21754;SDS011;11039;50.028;19.938;2023-03-01T16:32:37;4.15;;;2.55;;
21754;SDS011;11039;50.028;19.938;2023-03-01T16:35:04;4.90;;;2.50;;
21754;SDS011;11039;50.028;19.938;2023-03-01T16:37:31;5.53;;;3.25;;